Terminal Aerodrome Forecast
Issued by NWS Tulsa, OK

Home | Current Version | Previous Version | Text Only | Print | Product List | Glossary On
Versions: 1 2 3 4 5 6 7 8 9 10 11 12
202
FTUS44 KTSA 281727
TAFFSM
TAF
KFSM 281727Z 2818/2918 06006KT P6SM OVC025
     FM282000 12008KT P6SM BKN035
     FM290200 09007KT P6SM VCTS BKN040CB
      TEMPO 2902/2906 2SM TSRA BR BKN020CB
     FM290600 12006KT P6SM VCTS OVC015CB
      TEMPO 2906/2910 2SM TSRA BR BKN020CB
     FM291000 13007KT 4SM -TSRA OVC010CB=

USA.gov is the U.S. government's official web portal to all federal, state and local government web resources and services.